Time;durP1;ratioP1;P1;durP2;ratioP2;P2;SDS_P1;SDS_P2;PMS_P1;PMS_P2;Temp;Humidity;BMP_temperature;BMP_pressure;BME280_temperature;BME280_humidity;BME280_pressure;Samples;Min_cycle;Max_cycle;Signal;HPM_P1;HPM_P2
2023/02/23 00:02:07;;;;;;;7.53;4.78;;;;;;;;;;5051903;28;20581;-63
2023/02/23 00:04:35;;;;;;;6.93;4.60;;;;;;;;;;5051514;28;20028;-67
2023/02/23 00:07:01;;;;;;;7.18;4.53;;;;;;;;;;5038326;28;20049;-66
2023/02/23 00:09:33;;;;;;;7.10;4.60;;;;;;;;;;5047065;28;20472;-67
2023/02/23 00:11:59;;;;;;;6.97;4.80;;;;;;;;;;5015831;28;20497;-67
2023/02/23 00:14:29;;;;;;;6.00;4.75;;;;;;;;;;5065691;28;20085;-68
2023/02/23 00:16:55;;;;;;;7.72;4.53;;;;;;;;;;5048585;28;20081;-64
2023/02/23 00:19:23;;;;;;;6.43;4.43;;;;;;;;;;5060013;28;20171;-66
2023/02/23 00:21:49;;;;;;;7.78;5.30;;;;;;;;;;5066645;28;20036;-68
2023/02/23 00:24:17;;;;;;;8.15;5.20;;;;;;;;;;5047229;28;20051;-64
2023/02/23 00:26:44;;;;;;;6.05;4.53;;;;;;;;;;5060793;28;20028;-68
2023/02/23 00:29:16;;;;;;;6.15;4.32;;;;;;;;;;5066147;28;20159;-67
2023/02/23 00:31:43;;;;;;;6.32;4.70;;;;;;;;;;5050457;28;20045;-67
2023/02/23 00:34:08;;;;;;;7.53;5.22;;;;;;;;;;5060697;28;20044;-63
2023/02/23 00:36:33;;;;;;;7.75;5.13;;;;;;;;;;5036840;28;20029;-67
2023/02/23 00:38:59;;;;;;;6.75;4.78;;;;;;;;;;5046065;28;20063;-67
2023/02/23 00:41:27;;;;;;;5.97;4.78;;;;;;;;;;5039669;28;20041;-61
2023/02/23 00:43:53;;;;;;;7.72;4.93;;;;;;;;;;5046399;28;20033;-68
2023/02/23 00:46:21;;;;;;;7.38;5.25;;;;;;;;;;5062289;28;20040;-68
2023/02/23 00:48:47;;;;;;;7.38;4.40;;;;;;;;;;5065438;28;20318;-65
2023/02/23 00:51:12;;;;;;;6.03;4.68;;;;;;;;;;5044077;28;20950;-68
2023/02/23 00:53:38;;;;;;;8.20;5.07;;;;;;;;;;5050475;28;20477;-69
2023/02/23 00:56:03;;;;;;;6.50;4.85;;;;;;;;;;5027797;28;20043;-64
2023/02/23 00:58:29;;;;;;;6.85;5.03;;;;;;;;;;5055208;28;20029;-69
2023/02/23 01:00:54;;;;;;;7.40;5.07;;;;;;;;;;5047344;28;20806;-67
2023/02/23 01:03:19;;;;;;;7.10;4.72;;;;;;;;;;5065547;28;20322;-67
2023/02/23 01:05:48;;;;;;;6.23;4.63;;;;;;;;;;5033024;28;20045;-61
2023/02/23 01:08:14;;;;;;;8.38;5.00;;;;;;;;;;5045019;28;20372;-68
2023/02/23 01:10:40;;;;;;;6.07;4.63;;;;;;;;;;5047588;28;20079;-65
2023/02/23 01:13:05;;;;;;;7.57;4.70;;;;;;;;;;5065521;28;20714;-68
2023/02/23 01:15:31;;;;;;;6.83;4.83;;;;;;;;;;5062119;28;20041;-68
2023/02/23 01:17:56;;;;;;;6.65;5.05;;;;;;;;;;5040157;28;20337;-68
2023/02/23 01:20:21;;;;;;;7.07;5.03;;;;;;;;;;5043244;28;20094;-63
2023/02/23 01:22:48;;;;;;;6.43;4.93;;;;;;;;;;5065662;28;20051;-67
2023/02/23 01:25:13;;;;;;;6.30;4.63;;;;;;;;;;5047029;28;20054;-66
2023/02/23 01:27:39;;;;;;;7.22;4.82;;;;;;;;;;5046821;28;20096;-67
2023/02/23 01:30:05;;;;;;;6.47;4.88;;;;;;;;;;5057931;28;20056;-67
2023/02/23 01:32:30;;;;;;;7.03;4.90;;;;;;;;;;5040973;28;20135;-65
2023/02/23 01:34:55;;;;;;;6.33;4.83;;;;;;;;;;5066005;28;20498;-69
2023/02/23 01:37:20;;;;;;;6.60;4.73;;;;;;;;;;5064908;28;20633;-69
2023/02/23 01:39:45;;;;;;;6.50;5.20;;;;;;;;;;5061019;28;20052;-68
2023/02/23 01:42:14;;;;;;;6.53;4.43;;;;;;;;;;5046105;28;20298;-67
2023/02/23 01:44:39;;;;;;;6.15;4.60;;;;;;;;;;5060959;28;20025;-68
2023/02/23 01:47:04;;;;;;;7.03;4.70;;;;;;;;;;5065554;28;20028;-66
2023/02/23 01:49:30;;;;;;;7.57;5.13;;;;;;;;;;5068833;28;20274;-65
2023/02/23 01:52:02;;;;;;;6.75;4.80;;;;;;;;;;5070653;28;20044;-68
2023/02/23 01:54:29;;;;;;;6.97;4.78;;;;;;;;;;5068476;28;20036;-67
2023/02/23 01:56:58;;;;;;;6.13;4.60;;;;;;;;;;5051104;28;20033;-63
2023/02/23 01:59:44;;;;;;;7.25;5.00;;;;;;;;;;5058431;28;20048;-62
2023/02/23 02:02:09;;;;;;;6.07;4.50;;;;;;;;;;5049418;28;20040;-68
2023/02/23 02:04:44;;;;;;;6.28;4.60;;;;;;;;;;5043364;28;20173;-69
2023/02/23 02:07:20;;;;;;;7.60;5.30;;;;;;;;;;5065064;28;20040;-69
2023/02/23 02:10:38;;;;;;;7.45;4.93;;;;;;;;;;5066760;28;20050;-65
2023/02/23 02:12:30;;;;;;;7.38;5.07;;;;;;;;;;5070988;28;20036;-66
2023/02/23 02:14:56;;;;;;;6.60;4.90;;;;;;;;;;5067500;28;20021;-70
2023/02/23 02:17:39;;;;;;;6.90;4.88;;;;;;;;;;5042890;28;20354;-67
2023/02/23 02:20:13;;;;;;;6.32;4.65;;;;;;;;;;5066961;28;20041;-64
2023/02/23 02:22:53;;;;;;;5.45;4.30;;;;;;;;;;5058686;28;20056;-66
2023/02/23 02:25:33;;;;;;;7.28;4.93;;;;;;;;;;5067341;28;20036;-68
2023/02/23 02:28:17;;;;;;;6.85;5.07;;;;;;;;;;5065632;28;20432;-64
2023/02/23 02:30:48;;;;;;;6.03;4.65;;;;;;;;;;5055485;28;20037;-66
2023/02/23 02:33:36;;;;;;;7.25;5.40;;;;;;;;;;5048849;28;20158;-69
2023/02/23 02:36:11;;;;;;;6.60;4.70;;;;;;;;;;5049936;28;20045;-65
2023/02/23 02:38:57;;;;;;;6.68;4.50;;;;;;;;;;5067852;28;20147;-67
2023/02/23 02:41:41;;;;;;;6.22;4.78;;;;;;;;;;5047738;28;20097;-63
2023/02/23 02:44:06;;;;;;;6.57;4.88;;;;;;;;;;5046947;28;20127;-66
2023/02/23 02:46:34;;;;;;;5.90;4.70;;;;;;;;;;5065671;28;20104;-66
2023/02/23 02:48:59;;;;;;;5.90;4.32;;;;;;;;;;5067285;28;20728;-64
2023/02/23 02:51:24;;;;;;;6.73;5.03;;;;;;;;;;5068272;28;20064;-64
2023/02/23 02:53:50;;;;;;;6.75;4.65;;;;;;;;;;5064217;28;20148;-68
2023/02/23 02:56:18;;;;;;;6.70;5.13;;;;;;;;;;5054824;28;20491;-66
2023/02/23 02:58:44;;;;;;;5.70;4.38;;;;;;;;;;5049623;28;20642;-69
2023/02/23 04:18:13;;;;;;;6.25;4.57;;;;;;;;;;5045934;28;20096;-69
2023/02/23 04:20:38;;;;;;;6.88;4.70;;;;;;;;;;5060178;28;20853;-69
2023/02/23 04:23:03;;;;;;;6.33;4.27;;;;;;;;;;5065572;28;20090;-69
2023/02/23 04:25:29;;;;;;;5.67;4.60;;;;;;;;;;5061924;28;20275;-66
2023/02/23 04:27:54;;;;;;;6.60;4.87;;;;;;;;;;5065757;28;20328;-67
2023/02/23 04:30:19;;;;;;;6.20;4.83;;;;;;;;;;5038695;28;20271;-65
2023/02/23 04:32:44;;;;;;;6.43;4.85;;;;;;;;;;5045023;28;20095;-68
2023/02/23 04:35:10;;;;;;;6.80;4.80;;;;;;;;;;5064263;28;20086;-64
2023/02/23 04:37:36;;;;;;;6.72;4.65;;;;;;;;;;5067021;28;20345;-69
2023/02/23 04:40:01;;;;;;;5.70;4.55;;;;;;;;;;5065200;28;20537;-63
2023/02/23 04:42:27;;;;;;;6.85;5.22;;;;;;;;;;5047853;28;20020;-62
2023/02/23 04:44:52;;;;;;;7.03;5.20;;;;;;;;;;5055973;28;20566;-67
2023/02/23 04:47:18;;;;;;;6.83;4.83;;;;;;;;;;5049376;28;20120;-62
2023/02/23 04:49:43;;;;;;;6.50;4.50;;;;;;;;;;5031329;28;20861;-65
2023/02/23 04:52:08;;;;;;;6.60;4.67;;;;;;;;;;5049883;28;20322;-63
2023/02/23 04:54:37;;;;;;;6.72;5.28;;;;;;;;;;5049252;28;20955;-63
2023/02/23 04:57:03;;;;;;;7.88;5.20;;;;;;;;;;5048184;28;20036;-62
2023/02/23 04:59:28;;;;;;;7.40;5.20;;;;;;;;;;5049892;28;20101;-64
2023/02/23 05:01:54;;;;;;;6.40;5.03;;;;;;;;;;5031059;28;20105;-62
2023/02/23 05:04:19;;;;;;;7.20;5.68;;;;;;;;;;5031029;28;20112;-63
2023/02/23 05:06:45;;;;;;;6.93;5.22;;;;;;;;;;5035162;28;20504;-62
2023/02/23 05:09:10;;;;;;;6.38;4.97;;;;;;;;;;5040442;28;20033;-64
2023/02/23 05:11:35;;;;;;;6.87;5.40;;;;;;;;;;5064349;28;20049;-68
2023/02/23 05:14:01;;;;;;;7.57;5.35;;;;;;;;;;5044303;28;20060;-67
2023/02/23 05:16:26;;;;;;;7.18;5.40;;;;;;;;;;5065097;28;20067;-61
2023/02/23 05:18:52;;;;;;;8.43;5.72;;;;;;;;;;5060109;28;20055;-66
2023/02/23 05:21:17;;;;;;;6.88;5.50;;;;;;;;;;5064331;28;20028;-65
2023/02/23 05:23:42;;;;;;;7.40;5.17;;;;;;;;;;5066576;28;20167;-66
2023/02/23 05:26:09;;;;;;;7.07;5.22;;;;;;;;;;5056437;28;20283;-67
2023/02/23 05:28:34;;;;;;;7.70;5.70;;;;;;;;;;5038895;28;20039;-66
2023/02/23 05:31:00;;;;;;;7.63;5.55;;;;;;;;;;5057904;28;20040;-64
2023/02/23 05:33:25;;;;;;;7.18;5.00;;;;;;;;;;5057756;28;20028;-61
2023/02/23 05:35:50;;;;;;;8.10;5.60;;;;;;;;;;5055267;28;20044;-63
2023/02/23 05:38:16;;;;;;;8.70;5.30;;;;;;;;;;5058485;28;20139;-66
2023/02/23 05:40:41;;;;;;;7.95;5.30;;;;;;;;;;5058595;28;20311;-61
2023/02/23 05:43:06;;;;;;;7.13;4.93;;;;;;;;;;5057767;28;20043;-66
2023/02/23 05:45:32;;;;;;;7.90;5.30;;;;;;;;;;5046579;28;20794;-66
2023/02/23 05:47:57;;;;;;;7.55;5.80;;;;;;;;;;5049231;28;20748;-65
2023/02/23 05:50:22;;;;;;;7.32;5.35;;;;;;;;;;5054915;28;20054;-68
2023/02/23 05:52:48;;;;;;;6.73;5.00;;;;;;;;;;5043195;28;20150;-66
2023/02/23 05:55:14;;;;;;;7.45;5.30;;;;;;;;;;5057337;28;20314;-64
2023/02/23 05:57:40;;;;;;;7.30;5.70;;;;;;;;;;5058165;28;20036;-68
2023/02/23 06:00:05;;;;;;;8.02;5.40;;;;;;;;;;5061213;28;20052;-66
2023/02/23 06:02:31;;;;;;;7.40;5.38;;;;;;;;;;5052641;28;20179;-70
2023/02/23 06:04:56;;;;;;;8.88;5.28;;;;;;;;;;5066095;28;20453;-67
2023/02/23 06:07:21;;;;;;;7.63;5.83;;;;;;;;;;5069108;28;20040;-69
2023/02/23 06:09:47;;;;;;;6.53;5.03;;;;;;;;;;5057808;28;20119;-67
2023/02/23 06:12:12;;;;;;;8.40;5.93;;;;;;;;;;5059779;28;20341;-66
2023/02/23 06:14:37;;;;;;;6.28;5.07;;;;;;;;;;5063835;28;20301;-64
2023/02/23 06:17:02;;;;;;;7.03;5.30;;;;;;;;;;5043351;28;20028;-68
2023/02/23 06:19:28;;;;;;;8.07;5.53;;;;;;;;;;5067584;28;20041;-66
2023/02/23 06:21:53;;;;;;;7.18;5.30;;;;;;;;;;5065378;28;20703;-65
2023/02/23 06:24:18;;;;;;;8.00;5.40;;;;;;;;;;5071026;28;20039;-66
2023/02/23 06:26:44;;;;;;;8.43;6.00;;;;;;;;;;5051068;28;20357;-67
2023/02/23 06:29:10;;;;;;;6.82;5.03;;;;;;;;;;5067354;28;20282;-71
2023/02/23 06:31:36;;;;;;;6.63;5.13;;;;;;;;;;5059534;28;20044;-65
2023/02/23 06:34:01;;;;;;;9.03;4.90;;;;;;;;;;5063419;28;20486;-67
2023/02/23 06:36:26;;;;;;;7.53;5.53;;;;;;;;;;5043587;28;20302;-66
2023/02/23 06:38:54;;;;;;;8.65;5.60;;;;;;;;;;5063909;28;20278;-65
2023/02/23 06:41:19;;;;;;;12.20;5.07;;;;;;;;;;5060625;28;20529;-68
2023/02/23 06:43:44;;;;;;;9.47;5.73;;;;;;;;;;5062530;28;20039;-64
2023/02/23 06:46:10;;;;;;;7.90;5.93;;;;;;;;;;5066887;28;20802;-72
2023/02/23 06:48:35;;;;;;;8.25;5.15;;;;;;;;;;5062881;28;20967;-71
2023/02/23 06:51:00;;;;;;;7.30;5.43;;;;;;;;;;5063156;28;20047;-66
2023/02/23 06:53:26;;;;;;;8.53;5.30;;;;;;;;;;5061610;28;20066;-67
2023/02/23 06:55:51;;;;;;;7.00;5.10;;;;;;;;;;5047227;28;20824;-69
2023/02/23 06:58:16;;;;;;;10.67;6.03;;;;;;;;;;5062933;28;20040;-64
2023/02/23 07:00:42;;;;;;;7.43;5.30;;;;;;;;;;5046493;28;20799;-64
2023/02/23 07:03:07;;;;;;;9.68;5.85;;;;;;;;;;5045450;28;20036;-63
2023/02/23 07:05:32;;;;;;;7.27;5.30;;;;;;;;;;5058156;28;20507;-63
2023/02/23 07:07:58;;;;;;;7.53;4.97;;;;;;;;;;5048698;28;20283;-68
2023/02/23 07:10:23;;;;;;;7.20;5.30;;;;;;;;;;5037877;28;20366;-67
2023/02/23 07:12:48;;;;;;;8.50;5.73;;;;;;;;;;5051649;28;20288;-68
2023/02/23 07:15:16;;;;;;;7.82;5.03;;;;;;;;;;5054010;28;20325;-65
2023/02/23 07:17:42;;;;;;;7.57;5.50;;;;;;;;;;5051593;28;20074;-62
2023/02/23 07:20:08;;;;;;;7.85;5.38;;;;;;;;;;5035334;28;20060;-68
2023/02/23 07:22:33;;;;;;;6.88;5.10;;;;;;;;;;5053594;28;20063;-71
2023/02/23 07:24:59;;;;;;;7.03;5.30;;;;;;;;;;5058696;28;20044;-71
2023/02/23 07:27:24;;;;;;;7.70;5.32;;;;;;;;;;5046653;28;20055;-68
2023/02/23 07:29:49;;;;;;;7.17;5.30;;;;;;;;;;5063233;28;20036;-69
2023/02/23 07:32:15;;;;;;;7.93;5.10;;;;;;;;;;5066211;28;20401;-68
2023/02/23 07:34:40;;;;;;;6.15;5.32;;;;;;;;;;5066664;28;20275;-69
2023/02/23 07:37:05;;;;;;;7.53;5.47;;;;;;;;;;5048039;28;20044;-66
2023/02/23 07:39:30;;;;;;;7.00;5.30;;;;;;;;;;5056389;28;20306;-67
2023/02/23 07:41:56;;;;;;;8.43;4.97;;;;;;;;;;5023398;28;20338;-71
2023/02/23 07:44:21;;;;;;;7.93;5.75;;;;;;;;;;5041702;28;20281;-69
2023/02/23 07:46:46;;;;;;;6.95;5.28;;;;;;;;;;5047023;28;20043;-68
2023/02/23 07:49:12;;;;;;;7.57;5.68;;;;;;;;;;5036491;28;20033;-70
2023/02/23 07:51:38;;;;;;;7.95;5.25;;;;;;;;;;5045955;28;20500;-65
2023/02/23 07:54:03;;;;;;;7.50;5.43;;;;;;;;;;5048020;28;20465;-70
2023/02/23 07:56:29;;;;;;;8.55;5.55;;;;;;;;;;5048455;28;20080;-69
2023/02/23 07:58:54;;;;;;;7.57;5.43;;;;;;;;;;5047824;28;20056;-67
2023/02/23 08:01:19;;;;;;;8.02;5.07;;;;;;;;;;5046153;28;20332;-67
2023/02/23 08:03:48;;;;;;;7.00;5.17;;;;;;;;;;5047734;28;20056;-65
2023/02/23 08:06:14;;;;;;;7.82;5.55;;;;;;;;;;5047889;28;20382;-67
2023/02/23 08:08:39;;;;;;;6.85;5.28;;;;;;;;;;5046996;28;20522;-69
2023/02/23 08:11:04;;;;;;;7.17;5.13;;;;;;;;;;5046162;28;20029;-66
2023/02/23 08:13:30;;;;;;;7.80;5.28;;;;;;;;;;5046244;28;20632;-70
2023/02/23 08:15:55;;;;;;;6.88;5.70;;;;;;;;;;5046671;28;20033;-66
2023/02/23 08:18:21;;;;;;;8.20;5.68;;;;;;;;;;5045724;28;20048;-71
2023/02/23 08:20:46;;;;;;;7.35;5.50;;;;;;;;;;5039668;28;20113;-70
2023/02/23 08:23:11;;;;;;;7.82;5.85;;;;;;;;;;5046171;28;20572;-66
2023/02/23 08:25:37;;;;;;;7.13;5.53;;;;;;;;;;5045575;28;20497;-69
2023/02/23 08:28:03;;;;;;;9.53;6.10;;;;;;;;;;5033256;28;20119;-63
2023/02/23 08:30:28;;;;;;;7.35;5.50;;;;;;;;;;5045293;28;20809;-67
2023/02/23 08:32:53;;;;;;;9.70;6.35;;;;;;;;;;5027543;28;20037;-68
2023/02/23 08:35:19;;;;;;;6.93;5.33;;;;;;;;;;5045424;28;20025;-70
2023/02/23 08:37:44;;;;;;;7.55;5.65;;;;;;;;;;5047017;28;20033;-65
2023/02/23 08:40:14;;;;;;;7.82;5.63;;;;;;;;;;5045632;28;20056;-69
2023/02/23 08:42:39;;;;;;;7.95;5.45;;;;;;;;;;5027013;28;20055;-63
2023/02/23 08:45:05;;;;;;;7.20;5.10;;;;;;;;;;5029673;28;20041;-65
2023/02/23 08:47:31;;;;;;;8.90;6.15;;;;;;;;;;5028998;28;20433;-63
2023/02/23 08:49:57;;;;;;;7.60;5.57;;;;;;;;;;5033036;28;20060;-66
2023/02/23 08:52:22;;;;;;;8.13;5.77;;;;;;;;;;5048375;28;20599;-61
2023/02/23 08:54:48;;;;;;;7.03;5.60;;;;;;;;;;5028138;28;20317;-67
2023/02/23 08:57:13;;;;;;;7.68;5.57;;;;;;;;;;5061717;28;20036;-61
2023/02/23 08:59:40;;;;;;;6.97;5.55;;;;;;;;;;5057152;28;20045;-66
2023/02/23 09:02:07;;;;;;;8.57;5.78;;;;;;;;;;5049195;28;20044;-62
2023/02/23 09:04:34;;;;;;;7.95;5.53;;;;;;;;;;5032967;28;20475;-63
2023/02/23 09:06:59;;;;;;;8.98;5.93;;;;;;;;;;5040621;28;20036;-69
2023/02/23 09:09:25;;;;;;;7.55;5.78;;;;;;;;;;5030163;28;20038;-64
2023/02/23 09:11:50;;;;;;;7.07;5.30;;;;;;;;;;5047135;28;20060;-69
2023/02/23 09:14:15;;;;;;;6.90;5.37;;;;;;;;;;5060436;28;21010;-64
2023/02/23 09:16:41;;;;;;;7.47;5.55;;;;;;;;;;5064382;28;20694;-66
2023/02/23 09:19:06;;;;;;;6.90;5.63;;;;;;;;;;5050680;28;20451;-68
2023/02/23 09:21:33;;;;;;;7.65;5.80;;;;;;;;;;5059028;28;20748;-66
2023/02/23 09:23:58;;;;;;;6.97;5.65;;;;;;;;;;5062298;28;20453;-68
2023/02/23 09:26:25;;;;;;;6.80;5.57;;;;;;;;;;5059321;28;20049;-63
2023/02/23 09:28:50;;;;;;;7.30;5.53;;;;;;;;;;5051193;28;20040;-67
2023/02/23 09:31:16;;;;;;;7.63;5.37;;;;;;;;;;5060780;28;20825;-65
2023/02/23 09:33:41;;;;;;;7.82;5.70;;;;;;;;;;5042773;28;20318;-65
2023/02/23 09:36:15;;;;;;;7.63;5.73;;;;;;;;;;5058824;28;20093;-62
2023/02/23 09:38:40;;;;;;;8.23;5.45;;;;;;;;;;5033599;28;21109;-71
2023/02/23 09:41:08;;;;;;;6.93;5.10;;;;;;;;;;5048880;28;20068;-65
2023/02/23 09:43:53;;;;;;;8.10;5.22;;;;;;;;;;5042353;28;20549;-64
2023/02/23 09:46:37;;;;;;;6.53;4.82;;;;;;;;;;5061873;28;20108;-68
2023/02/23 09:49:02;;;;;;;7.05;5.90;;;;;;;;;;5062186;28;20041;-62
2023/02/23 09:51:28;;;;;;;7.82;5.22;;;;;;;;;;5034263;28;20078;-66
2023/02/23 09:53:54;;;;;;;8.40;5.35;;;;;;;;;;5030213;28;20045;-73
2023/02/23 09:56:19;;;;;;;7.68;5.07;;;;;;;;;;5037802;28;20086;-70
2023/02/23 09:58:44;;;;;;;9.20;5.60;;;;;;;;;;5063916;28;20047;-63
2023/02/23 10:01:13;;;;;;;8.73;6.07;;;;;;;;;;5062453;28;20032;-66
2023/02/23 10:03:57;;;;;;;8.60;5.30;;;;;;;;;;5043873;28;20048;-62
2023/02/23 10:06:22;;;;;;;7.55;5.28;;;;;;;;;;5062297;28;20036;-62
2023/02/23 10:08:47;;;;;;;7.10;5.38;;;;;;;;;;5060724;28;20523;-64
2023/02/23 10:11:17;;;;;;;7.83;5.30;;;;;;;;;;5053915;28;20894;-67
2023/02/23 10:13:48;;;;;;;6.80;4.82;;;;;;;;;;5062539;28;20095;-65
2023/02/23 10:16:25;;;;;;;8.93;5.32;;;;;;;;;;5063513;28;20041;-62
2023/02/23 10:18:55;;;;;;;7.55;5.15;;;;;;;;;;5061099;28;20036;-66
2023/02/23 10:21:30;;;;;;;8.02;5.55;;;;;;;;;;5037009;28;20123;-64
2023/02/23 10:23:55;;;;;;;7.93;5.32;;;;;;;;;;5061178;28;20504;-64
2023/02/23 10:26:21;;;;;;;6.57;5.33;;;;;;;;;;5067542;28;20032;-64
2023/02/23 10:28:46;;;;;;;8.52;6.22;;;;;;;;;;5049763;28;20055;-66
2023/02/23 10:31:15;;;;;;;6.55;5.13;;;;;;;;;;5035318;28;20584;-67
2023/02/23 10:33:40;;;;;;;7.78;5.60;;;;;;;;;;5064505;28;20128;-63
2023/02/23 10:36:28;;;;;;;7.38;5.70;;;;;;;;;;5062709;28;20484;-65
2023/02/23 10:38:53;;;;;;;7.13;5.60;;;;;;;;;;5036818;28;20048;-68
2023/02/23 10:41:18;;;;;;;7.55;5.53;;;;;;;;;;5046416;28;20032;-63
2023/02/23 10:43:43;;;;;;;6.43;5.20;;;;;;;;;;5028916;28;20039;-66
2023/02/23 10:46:10;;;;;;;6.23;4.90;;;;;;;;;;5067328;28;20308;-66
2023/02/23 10:48:38;;;;;;;7.93;5.40;;;;;;;;;;5033326;28;20278;-66
2023/02/23 10:51:04;;;;;;;9.07;5.57;;;;;;;;;;5041862;28;20086;-62
2023/02/23 10:53:37;;;;;;;7.07;4.90;;;;;;;;;;5044912;28;20025;-62
2023/02/23 10:56:12;;;;;;;8.00;5.22;;;;;;;;;;5062354;28;20072;-69
2023/02/23 10:59:08;;;;;;;7.53;4.70;;;;;;;;;;5040538;28;20051;-68
2023/02/23 11:01:43;;;;;;;7.45;5.22;;;;;;;;;;5058403;28;20066;-62
2023/02/23 11:04:27;;;;;;;7.63;5.03;;;;;;;;;;5045695;28;20071;-65
2023/02/23 11:07:04;;;;;;;6.68;5.07;;;;;;;;;;5031403;28;20064;-66
2023/02/23 11:09:30;;;;;;;6.93;5.05;;;;;;;;;;5066812;28;20033;-63
2023/02/23 11:11:59;;;;;;;6.63;5.15;;;;;;;;;;5045281;28;20604;-64
2023/02/23 11:14:26;;;;;;;6.88;5.40;;;;;;;;;;5047823;28;20040;-65
2023/02/23 11:16:51;;;;;;;6.97;4.97;;;;;;;;;;5065461;28;20055;-64
2023/02/23 11:19:21;;;;;;;7.28;5.35;;;;;;;;;;5038802;28;20417;-67
2023/02/23 11:21:46;;;;;;;;;;;;;;;;;;5013815;28;20116;-65
2023/02/23 11:24:18;;;;;;;6.68;4.88;;;;;;;;;;5057071;28;20024;-65
2023/02/23 11:26:43;;;;;;;6.68;4.80;;;;;;;;;;5062769;28;20412;-67
2023/02/23 11:29:11;;;;;;;7.13;5.10;;;;;;;;;;5048457;28;20033;-67
2023/02/23 11:31:38;;;;;;;8.95;5.25;;;;;;;;;;5058699;28;20075;-64
2023/02/23 11:34:03;;;;;;;6.70;4.72;;;;;;;;;;5033309;28;20068;-66
2023/02/23 11:36:30;;;;;;;7.10;5.00;;;;;;;;;;5066483;28;20055;-64
2023/02/23 11:39:15;;;;;;;7.20;5.07;;;;;;;;;;5039404;28;20085;-68
2023/02/23 11:41:41;;;;;;;5.88;4.88;;;;;;;;;;5026344;28;20068;-67
2023/02/23 11:44:06;;;;;;;6.35;4.97;;;;;;;;;;5061947;28;21285;-65
2023/02/23 11:46:34;;;;;;;6.53;4.65;;;;;;;;;;5056486;28;20094;-68
2023/02/23 11:49:04;;;;;;;6.85;4.93;;;;;;;;;;5036565;28;20105;-66
2023/02/23 11:51:30;;;;;;;6.00;4.65;;;;;;;;;;5040726;28;20044;-66
2023/02/23 11:53:55;;;;;;;7.03;5.03;;;;;;;;;;5044179;28;20090;-65
2023/02/23 11:56:22;;;;;;;6.47;4.68;;;;;;;;;;5037482;28;20086;-66
2023/02/23 11:59:08;;;;;;;6.43;4.90;;;;;;;;;;5035934;28;20028;-63
2023/02/23 12:01:59;;;;;;;7.07;4.97;;;;;;;;;;5051092;28;20041;-64
2023/02/23 12:04:30;;;;;;;6.93;5.03;;;;;;;;;;5032555;28;20567;-66
2023/02/23 12:07:16;;;;;;;6.97;4.95;;;;;;;;;;5055575;28;20072;-68
2023/02/23 12:09:41;;;;;;;5.53;4.38;;;;;;;;;;5056726;28;25775;-65
2023/02/23 12:12:08;;;;;;;6.40;4.73;;;;;;;;;;5063359;28;20512;-66
2023/02/23 12:14:41;;;;;;;6.57;4.43;;;;;;;;;;5028413;28;20060;-63
2023/02/23 12:17:20;;;;;;;7.05;4.90;;;;;;;;;;5042764;28;20041;-66
2023/02/23 12:19:47;;;;;;;6.63;4.50;;;;;;;;;;5061123;28;20169;-63
2023/02/23 12:22:12;;;;;;;5.50;4.38;;;;;;;;;;5047254;28;20039;-66
2023/02/23 12:24:44;;;;;;;5.72;4.60;;;;;;;;;;5063652;28;20759;-63
2023/02/23 12:27:11;;;;;;;6.22;4.60;;;;;;;;;;5046911;28;20093;-61
2023/02/23 12:29:37;;;;;;;6.32;4.78;;;;;;;;;;5048148;28;20508;-64
2023/02/23 12:32:04;;;;;;;6.90;4.93;;;;;;;;;;5051423;28;20025;-65
2023/02/23 12:34:40;;;;;;;5.18;4.32;;;;;;;;;;5059251;28;20055;-63
2023/02/23 12:37:26;;;;;;;6.32;5.00;;;;;;;;;;5043433;28;20032;-68
2023/02/23 12:39:53;;;;;;;7.65;4.93;;;;;;;;;;5063605;28;20097;-68
2023/02/23 12:42:23;;;;;;;5.60;4.60;;;;;;;;;;5054308;28;20044;-64
2023/02/23 12:44:49;;;;;;;6.47;4.65;;;;;;;;;;5043119;28;20044;-66
2023/02/23 12:47:23;;;;;;;5.80;4.57;;;;;;;;;;5056618;28;20033;-70
2023/02/23 12:49:53;;;;;;;5.45;4.47;;;;;;;;;;5051688;28;20048;-68
2023/02/23 12:52:18;;;;;;;;;;;;;;;;;;5043750;28;20123;-65
2023/02/23 12:54:45;;;;;;;5.97;4.70;;;;;;;;;;5050613;28;20090;-65
2023/02/23 12:57:18;;;;;;;5.88;4.68;;;;;;;;;;5059657;28;20793;-62
2023/02/23 13:00:03;;;;;;;5.28;4.47;;;;;;;;;;5033020;28;20517;-67
2023/02/23 13:02:29;;;;;;;7.35;4.65;;;;;;;;;;5062024;28;20036;-65
2023/02/23 13:05:01;;;;;;;6.53;4.93;;;;;;;;;;5050053;28;20090;-66
2023/02/23 13:07:35;;;;;;;7.63;5.15;;;;;;;;;;5062271;28;20033;-66
2023/02/23 13:10:29;;;;;;;5.10;4.07;;;;;;;;;;5061387;28;20457;-71
2023/02/23 13:13:01;;;;;;;6.60;4.70;;;;;;;;;;4990349;28;20252;-65
2023/02/23 13:15:45;;;;;;;5.85;4.50;;;;;;;;;;5046646;28;20024;-63
2023/02/23 13:18:29;;;;;;;5.72;4.35;;;;;;;;;;5060601;28;20051;-66
2023/02/23 13:21:08;;;;;;;5.38;4.10;;;;;;;;;;5062813;28;20040;-64
2023/02/23 13:23:37;;;;;;;5.88;4.43;;;;;;;;;;5035432;28;20124;-64
2023/02/23 13:26:02;;;;;;;5.65;4.47;;;;;;;;;;5046376;28;20045;-66
2023/02/23 13:28:36;;;;;;;5.70;4.50;;;;;;;;;;5039201;28;20063;-69
2023/02/23 13:31:01;;;;;;;5.95;4.53;;;;;;;;;;5060805;28;20790;-62
2023/02/23 13:33:28;;;;;;;6.33;4.63;;;;;;;;;;5064632;28;20044;-67
2023/02/23 13:35:53;;;;;;;5.75;4.30;;;;;;;;;;5045855;28;20290;-69
2023/02/23 13:38:22;;;;;;;5.50;4.20;;;;;;;;;;5064117;28;20416;-67
2023/02/23 13:41:06;;;;;;;7.03;4.53;;;;;;;;;;5062301;28;20320;-63
2023/02/23 13:43:33;;;;;;;5.30;4.13;;;;;;;;;;5052364;28;20067;-65
2023/02/23 13:46:01;;;;;;;5.80;4.25;;;;;;;;;;5064663;28;20577;-70
2023/02/23 13:49:03;;;;;;;4.88;4.00;;;;;;;;;;5050411;28;21129;-63
2023/02/23 13:51:34;;;;;;;5.18;3.90;;;;;;;;;;4957648;28;20526;-69
2023/02/23 13:53:59;;;;;;;5.22;4.15;;;;;;;;;;5039635;28;20098;-67
2023/02/23 13:56:54;;;;;;;5.53;4.20;;;;;;;;;;5066593;28;20530;-62
2023/02/23 13:59:20;;;;;;;4.93;3.88;;;;;;;;;;5036531;28;20372;-68
2023/02/23 14:01:46;;;;;;;6.10;4.45;;;;;;;;;;5064965;28;20674;-64
2023/02/23 14:04:20;;;;;;;5.47;4.38;;;;;;;;;;5060947;28;20024;-67
2023/02/23 14:06:55;;;;;;;4.93;3.92;;;;;;;;;;5065283;28;20060;-66
2023/02/23 14:09:27;;;;;;;5.60;4.07;;;;;;;;;;5068248;28;20043;-65
2023/02/23 14:12:01;;;;;;;5.07;3.95;;;;;;;;;;5061284;28;20044;-67
2023/02/23 14:14:30;;;;;;;4.90;4.13;;;;;;;;;;5050198;28;20044;-64
2023/02/23 14:17:14;;;;;;;6.13;4.28;;;;;;;;;;5066296;28;20024;-75
2023/02/23 14:19:42;;;;;;;6.43;4.45;;;;;;;;;;5069806;28;20070;-71
2023/02/23 14:22:20;;;;;;;5.57;4.10;;;;;;;;;;5070087;28;20604;-67
2023/02/23 14:24:46;;;;;;;5.70;4.20;;;;;;;;;;5061101;28;20119;-66
2023/02/23 14:27:33;;;;;;;4.77;4.27;;;;;;;;;;5057283;28;20025;-71
2023/02/23 14:30:11;;;;;;;5.47;4.30;;;;;;;;;;5037270;28;20286;-70
2023/02/23 14:32:37;;;;;;;4.82;3.92;;;;;;;;;;5042861;28;20045;-68
2023/02/23 14:35:02;;;;;;;5.32;4.10;;;;;;;;;;5066907;28;20037;-66
2023/02/23 14:37:33;;;;;;;4.57;3.58;;;;;;;;;;5066445;28;20468;-65
2023/02/23 14:40:00;;;;;;;4.50;3.70;;;;;;;;;;5068376;28;20052;-72
2023/02/23 14:42:25;;;;;;;4.60;3.67;;;;;;;;;;5044195;28;20041;-64
2023/02/23 14:44:51;;;;;;;4.93;3.95;;;;;;;;;;5041621;28;20446;-67
2023/02/23 14:47:17;;;;;;;5.35;3.80;;;;;;;;;;5038860;28;20070;-67
2023/02/23 14:49:47;;;;;;;4.82;3.90;;;;;;;;;;5032012;28;20040;-66
2023/02/23 14:52:19;;;;;;;4.90;4.03;;;;;;;;;;5040611;28;20114;-70
2023/02/23 14:54:44;;;;;;;4.80;3.67;;;;;;;;;;5065011;28;20048;-64
2023/02/23 14:57:18;;;;;;;5.17;4.03;;;;;;;;;;5040573;28;20041;-67
2023/02/23 14:59:43;;;;;;;5.78;4.18;;;;;;;;;;5056113;28;20338;-70
2023/02/23 15:02:09;;;;;;;4.90;4.20;;;;;;;;;;5054668;28;20492;-67
2023/02/23 15:04:37;;;;;;;5.65;4.15;;;;;;;;;;5052973;28;20120;-69
2023/02/23 15:07:02;;;;;;;5.22;4.10;;;;;;;;;;5047976;28;20064;-69
2023/02/23 15:09:29;;;;;;;6.18;4.10;;;;;;;;;;5061173;28;20703;-64
2023/02/23 15:11:55;;;;;;;4.80;3.90;;;;;;;;;;5043845;28;20040;-63
2023/02/23 15:14:20;;;;;;;4.67;3.93;;;;;;;;;;5060927;28;20201;-69
2023/02/23 15:16:45;;;;;;;6.95;4.28;;;;;;;;;;5047292;28;20342;-65
2023/02/23 15:19:14;;;;;;;5.07;3.90;;;;;;;;;;5046907;28;20040;-65
2023/02/23 15:21:40;;;;;;;5.32;4.25;;;;;;;;;;5041684;28;20363;-67
2023/02/23 15:24:06;;;;;;;6.33;4.43;;;;;;;;;;5066347;28;20151;-66
2023/02/23 15:26:31;;;;;;;8.60;4.60;;;;;;;;;;5026170;28;20289;-67
2023/02/23 15:29:09;;;;;;;7.93;4.67;;;;;;;;;;5062979;28;20036;-67
2023/02/23 15:31:35;;;;;;;8.80;4.38;;;;;;;;;;5053905;28;20805;-70
2023/02/23 15:34:00;;;;;;;7.80;4.80;;;;;;;;;;5026069;28;20041;-74
2023/02/23 15:36:27;;;;;;;7.25;4.82;;;;;;;;;;5035996;28;20428;-69
2023/02/23 15:38:53;;;;;;;7.32;5.57;;;;;;;;;;5040519;28;20033;-68
2023/02/23 15:41:18;;;;;;;8.60;5.50;;;;;;;;;;5066528;28;20079;-66
2023/02/23 15:43:43;;;;;;;10.73;6.03;;;;;;;;;;5065439;28;20032;-70
2023/02/23 15:46:11;;;;;;;8.90;5.43;;;;;;;;;;5060779;28;20760;-62
2023/02/23 15:48:46;;;;;;;10.65;5.55;;;;;;;;;;5043495;28;20361;-63
2023/02/23 15:51:16;;;;;;;9.55;5.85;;;;;;;;;;5051023;28;20048;-65
2023/02/23 15:53:42;;;;;;;12.13;5.93;;;;;;;;;;5036172;28;20032;-67
2023/02/23 15:56:14;;;;;;;10.07;5.70;;;;;;;;;;5041672;28;20036;-64
2023/02/23 15:58:42;;;;;;;12.30;6.30;;;;;;;;;;5044861;28;20043;-72
2023/02/23 16:01:11;;;;;;;11.60;6.40;;;;;;;;;;5036997;28;20055;-70
2023/02/23 16:03:37;;;;;;;10.10;5.97;;;;;;;;;;5031342;28;20032;-68
2023/02/23 16:06:04;;;;;;;10.57;6.03;;;;;;;;;;5041755;28;20067;-61
2023/02/23 16:08:29;;;;;;;20.13;8.07;;;;;;;;;;5045193;28;21051;-71